الصفحة الرئيسية
METAR-TAF:

METAR-TAF

مطار :

Chapecó, سانتا كاتارينا, البرازيل

دائرة عرض: 27-08-02S, خط طول: 052-39-43W, ارتفاع: 654 متر

مراقبة الطقس الحالي

تاريخ ووقت الإصدار 23 دقيقة قبل الساعة 00:06UTC
ريح 8 عقدة من الجنوب
درجة الحرارة 16°درجة مئوية
الرطوبة 100%
ضغط 1014 hPa
الرؤية: 7000 متر
غيوم متفرقة على ارتفاع 500 قدم
غيوم مفككة على ارتفاع 2000 قدم
غيوم قليلة على ارتفاع 3000 قدم, مزنة ركامية.
غيوم مفككة على ارتفاع 8000 قدم
عاصفة رعدية, مطر خفيف,

METAR: SBCH 180006Z 17008KT 7000 -TSRA SCT005 BKN020 FEW030CB BKN080 16/16 Q1014

زمن: 21:29 (00:29 UTC)


TAF: مفقودة

أرصاد الطقس والتوقعات من أكثر من 4000 مطار (تقارير الطقس للمطار METAR والتنبؤ بالطقس بالمطارTAF).

المحطات المتاحة هي النقط الصفراء والحمراء على الخريطة.

حرك المؤشر فوق النقطة لمعرفة اسم المحطة.

ثم انقر لمعرفة أرصاد وتوقعات الطقس.

لتغيير الخارطة: اضغط على الأزرار الخضراء مع رمز الصليب الأسود للتكبير. على الزر الأخضر مع شرطة للتصغير، أو على الأسهم الخضراء للخرائط المجاورة.


METAR-TAF: